sensor_id;sensor_type;location;lat;lon;timestamp;pressure;altitude;pressure_sealevel;temperature;humidity
38939;BME280;24211;49.980;19.776;2023-05-29T00:01:44;99486.72;;;14.59;88.17
38939;BME280;24211;49.980;19.776;2023-05-29T00:04:11;99482.88;;;14.55;88.09
38939;BME280;24211;49.980;19.776;2023-05-29T00:06:39;99487.94;;;14.52;88.55
38939;BME280;24211;49.980;19.776;2023-05-29T00:09:08;99487.03;;;14.46;89.32
38939;BME280;24211;49.980;19.776;2023-05-29T00:11:35;99484.28;;;14.41;89.54
38939;BME280;24211;49.980;19.776;2023-05-29T00:14:02;99490.38;;;14.36;89.43
38939;BME280;24211;49.980;19.776;2023-05-29T00:16:29;99486.53;;;14.32;90.20
38939;BME280;24211;49.980;19.776;2023-05-29T00:18:57;99485.84;;;14.25;90.74
38939;BME280;24211;49.980;19.776;2023-05-29T00:21:24;99486.59;;;14.21;90.97
38939;BME280;24211;49.980;19.776;2023-05-29T00:23:52;99483.59;;;14.17;91.53
38939;BME280;24211;49.980;19.776;2023-05-29T00:26:19;99488.63;;;14.14;91.79
38939;BME280;24211;49.980;19.776;2023-05-29T00:28:52;99482.91;;;14.10;93.03
38939;BME280;24211;49.980;19.776;2023-05-29T00:31:20;99480.97;;;14.06;92.35
38939;BME280;24211;49.980;19.776;2023-05-29T00:33:47;99482.25;;;14.03;92.51
38939;BME280;24211;49.980;19.776;2023-05-29T00:36:14;99487.53;;;13.98;92.54
38939;BME280;24211;49.980;19.776;2023-05-29T00:38:42;99484.53;;;13.95;93.41
38939;BME280;24211;49.980;19.776;2023-05-29T00:41:14;99480.94;;;13.89;94.07
38939;BME280;24211;49.980;19.776;2023-05-29T00:43:43;99485.19;;;13.85;94.04
38939;BME280;24211;49.980;19.776;2023-05-29T00:46:14;99479.16;;;13.78;94.63
38939;BME280;24211;49.980;19.776;2023-05-29T00:48:43;99487.69;;;13.75;94.68
38939;BME280;24211;49.980;19.776;2023-05-29T00:51:11;99485.47;;;13.72;94.46
38939;BME280;24211;49.980;19.776;2023-05-29T00:53:42;99480.00;;;13.67;94.40
38939;BME280;24211;49.980;19.776;2023-05-29T00:56:10;99474.06;;;13.65;94.05
38939;BME280;24211;49.980;19.776;2023-05-29T00:58:39;99473.97;;;13.60;94.51
38939;BME280;24211;49.980;19.776;2023-05-29T01:01:08;99472.22;;;13.54;95.73
38939;BME280;24211;49.980;19.776;2023-05-29T01:03:36;99468.41;;;13.50;96.06
38939;BME280;24211;49.980;19.776;2023-05-29T01:06:04;99466.69;;;13.44;96.87
38939;BME280;24211;49.980;19.776;2023-05-29T01:08:31;99472.53;;;13.41;96.93
38939;BME280;24211;49.980;19.776;2023-05-29T01:11:40;99475.13;;;13.36;97.74
38939;BME280;24211;49.980;19.776;2023-05-29T01:17:10;99474.09;;;13.25;98.78
38939;BME280;24211;49.980;19.776;2023-05-29T01:23:19;99482.75;;;13.16;99.92
38939;BME280;24211;49.980;19.776;2023-05-29T01:28:48;99477.13;;;13.05;100.00
38939;BME280;24211;49.980;19.776;2023-05-29T01:31:23;99477.03;;;13.00;100.00
38939;BME280;24211;49.980;19.776;2023-05-29T01:33:58;99473.19;;;12.96;100.00
38939;BME280;24211;49.980;19.776;2023-05-29T01:36:27;99473.66;;;12.93;100.00
38939;BME280;24211;49.980;19.776;2023-05-29T01:38:57;99476.03;;;12.90;100.00
38939;BME280;24211;49.980;19.776;2023-05-29T01:41:26;99476.13;;;12.83;100.00
38939;BME280;24211;49.980;19.776;2023-05-29T01:43:54;99476.59;;;12.80;100.00
38939;BME280;24211;49.980;19.776;2023-05-29T01:46:23;99475.44;;;12.76;100.00
38939;BME280;24211;49.980;19.776;2023-05-29T01:48:53;99475.31;;;12.71;100.00
38939;BME280;24211;49.980;19.776;2023-05-29T01:51:22;99473.09;;;12.68;100.00
38939;BME280;24211;49.980;19.776;2023-05-29T01:53:49;99478.13;;;12.65;100.00
38939;BME280;24211;49.980;19.776;2023-05-29T01:56:17;99476.28;;;12.65;100.00
38939;BME280;24211;49.980;19.776;2023-05-29T01:58:46;99474.06;;;12.62;100.00
38939;BME280;24211;49.980;19.776;2023-05-29T02:01:14;99467.50;;;12.58;100.00
38939;BME280;24211;49.980;19.776;2023-05-29T02:03:41;99477.06;;;12.54;100.00
38939;BME280;24211;49.980;19.776;2023-05-29T02:06:09;99464.00;;;12.46;100.00
38939;BME280;24211;49.980;19.776;2023-05-29T02:08:37;99465.78;;;12.40;100.00
38939;BME280;24211;49.980;19.776;2023-05-29T02:11:05;99465.41;;;12.37;100.00
38939;BME280;24211;49.980;19.776;2023-05-29T02:13:32;99470.66;;;12.32;100.00
38939;BME280;24211;49.980;19.776;2023-05-29T02:15:59;99466.34;;;12.31;100.00
38939;BME280;24211;49.980;19.776;2023-05-29T02:18:28;99469.72;;;12.26;100.00
38939;BME280;24211;49.980;19.776;2023-05-29T02:20:55;99470.78;;;12.25;100.00
38939;BME280;24211;49.980;19.776;2023-05-29T02:23:22;99462.84;;;12.19;100.00
38939;BME280;24211;49.980;19.776;2023-05-29T02:25:51;99465.75;;;12.17;100.00
38939;BME280;24211;49.980;19.776;2023-05-29T02:28:18;99462.13;;;12.12;100.00
38939;BME280;24211;49.980;19.776;2023-05-29T02:30:45;99461.53;;;12.10;100.00
38939;BME280;24211;49.980;19.776;2023-05-29T02:33:12;99453.97;;;12.07;100.00
38939;BME280;24211;49.980;19.776;2023-05-29T02:35:39;99461.41;;;12.05;100.00
38939;BME280;24211;49.980;19.776;2023-05-29T02:38:06;99456.19;;;11.98;100.00
38939;BME280;24211;49.980;19.776;2023-05-29T02:40:34;99465.69;;;11.94;100.00
38939;BME280;24211;49.980;19.776;2023-05-29T02:43:01;99461.63;;;11.92;100.00
38939;BME280;24211;49.980;19.776;2023-05-29T02:45:28;99469.31;;;11.88;100.00
38939;BME280;24211;49.980;19.776;2023-05-29T02:47:55;99461.72;;;11.85;100.00
38939;BME280;24211;49.980;19.776;2023-05-29T02:50:22;99458.47;;;11.83;100.00
38939;BME280;24211;49.980;19.776;2023-05-29T02:52:49;99459.75;;;11.80;100.00
38939;BME280;24211;49.980;19.776;2023-05-29T02:55:17;99463.69;;;11.78;100.00
38939;BME280;24211;49.980;19.776;2023-05-29T02:57:44;99461.47;;;11.75;100.00
38939;BME280;24211;49.980;19.776;2023-05-29T03:00:12;99458.44;;;11.71;100.00
38939;BME280;24211;49.980;19.776;2023-05-29T03:02:39;99459.09;;;11.67;100.00
38939;BME280;24211;49.980;19.776;2023-05-29T03:05:07;99461.78;;;11.67;100.00
38939;BME280;24211;49.980;19.776;2023-05-29T03:07:35;99458.97;;;11.62;100.00
38939;BME280;24211;49.980;19.776;2023-05-29T03:10:03;99456.28;;;11.62;100.00
38939;BME280;24211;49.980;19.776;2023-05-29T03:12:30;99454.41;;;11.62;100.00
38939;BME280;24211;49.980;19.776;2023-05-29T03:14:59;99455.00;;;11.64;100.00
38939;BME280;24211;49.980;19.776;2023-05-29T03:17:27;99455.81;;;11.65;100.00
38939;BME280;24211;49.980;19.776;2023-05-29T03:19:56;99450.69;;;11.63;100.00
38939;BME280;24211;49.980;19.776;2023-05-29T03:22:24;99453.63;;;11.62;100.00
38939;BME280;24211;49.980;19.776;2023-05-29T03:24:52;99458.34;;;11.60;100.00
38939;BME280;24211;49.980;19.776;2023-05-29T03:27:19;99458.34;;;11.60;100.00
38939;BME280;24211;49.980;19.776;2023-05-29T03:29:56;99457.56;;;11.59;100.00
38939;BME280;24211;49.980;19.776;2023-05-29T03:32:23;99457.56;;;11.59;100.00
38939;BME280;24211;49.980;19.776;2023-05-29T03:34:51;99459.63;;;11.57;100.00
38939;BME280;24211;49.980;19.776;2023-05-29T03:37:18;99451.00;;;11.55;100.00
38939;BME280;24211;49.980;19.776;2023-05-29T03:39:46;99461.38;;;11.52;100.00
38939;BME280;24211;49.980;19.776;2023-05-29T03:42:13;99457.28;;;11.49;100.00
38939;BME280;24211;49.980;19.776;2023-05-29T03:44:42;99465.91;;;11.51;100.00
38939;BME280;24211;49.980;19.776;2023-05-29T03:47:10;99466.94;;;11.50;100.00
38939;BME280;24211;49.980;19.776;2023-05-29T03:49:38;99463.47;;;11.50;100.00
38939;BME280;24211;49.980;19.776;2023-05-29T03:52:05;99474.97;;;11.50;100.00
38939;BME280;24211;49.980;19.776;2023-05-29T03:54:33;99478.22;;;11.52;100.00
38939;BME280;24211;49.980;19.776;2023-05-29T03:57:02;99481.97;;;11.51;100.00
38939;BME280;24211;49.980;19.776;2023-05-29T03:59:29;99474.50;;;11.53;100.00
38939;BME280;24211;49.980;19.776;2023-05-29T04:01:57;99476.75;;;11.56;100.00
38939;BME280;24211;49.980;19.776;2023-05-29T04:04:25;99473.63;;;11.59;100.00
38939;BME280;24211;49.980;19.776;2023-05-29T04:06:53;99473.16;;;11.62;100.00
38939;BME280;24211;49.980;19.776;2023-05-29T04:09:20;99471.88;;;11.65;100.00
38939;BME280;24211;49.980;19.776;2023-05-29T04:11:47;99468.56;;;11.69;100.00
38939;BME280;24211;49.980;19.776;2023-05-29T04:14:15;99464.81;;;11.70;100.00
38939;BME280;24211;49.980;19.776;2023-05-29T04:16:44;99468.09;;;11.72;100.00
38939;BME280;24211;49.980;19.776;2023-05-29T04:19:12;99469.28;;;11.76;100.00
38939;BME280;24211;49.980;19.776;2023-05-29T04:21:39;99468.81;;;11.79;100.00
38939;BME280;24211;49.980;19.776;2023-05-29T04:24:07;99476.97;;;11.85;100.00
38939;BME280;24211;49.980;19.776;2023-05-29T04:26:34;99475.00;;;11.92;100.00
38939;BME280;24211;49.980;19.776;2023-05-29T04:29:03;99479.91;;;11.95;100.00
38939;BME280;24211;49.980;19.776;2023-05-29T04:31:32;99475.50;;;12.00;100.00
38939;BME280;24211;49.980;19.776;2023-05-29T04:34:00;99474.59;;;12.06;100.00
38939;BME280;24211;49.980;19.776;2023-05-29T04:36:27;99476.34;;;12.12;100.00
38939;BME280;24211;49.980;19.776;2023-05-29T04:39:07;99478.44;;;12.22;100.00
38939;BME280;24211;49.980;19.776;2023-05-29T04:41:35;99479.16;;;12.29;100.00
38939;BME280;24211;49.980;19.776;2023-05-29T04:44:04;99482.53;;;12.36;100.00
38939;BME280;24211;49.980;19.776;2023-05-29T04:46:40;99483.72;;;12.40;100.00
38939;BME280;24211;49.980;19.776;2023-05-29T04:49:07;99490.81;;;12.46;100.00
38939;BME280;24211;49.980;19.776;2023-05-29T04:51:34;99486.16;;;12.53;100.00
38939;BME280;24211;49.980;19.776;2023-05-29T04:54:03;99485.34;;;12.64;100.00
38939;BME280;24211;49.980;19.776;2023-05-29T04:56:30;99492.00;;;12.73;100.00
38939;BME280;24211;49.980;19.776;2023-05-29T04:58:58;99493.84;;;12.84;100.00
38939;BME280;24211;49.980;19.776;2023-05-29T05:01:25;99483.34;;;12.94;100.00
38939;BME280;24211;49.980;19.776;2023-05-29T05:03:53;99495.72;;;13.07;100.00
38939;BME280;24211;49.980;19.776;2023-05-29T05:06:23;99482.28;;;13.19;100.00
38939;BME280;24211;49.980;19.776;2023-05-29T05:08:53;99483.53;;;13.28;100.00
38939;BME280;24211;49.980;19.776;2023-05-29T05:11:23;99481.16;;;13.43;100.00
38939;BME280;24211;49.980;19.776;2023-05-29T05:13:50;99484.13;;;13.58;100.00
38939;BME280;24211;49.980;19.776;2023-05-29T05:16:18;99477.66;;;13.70;100.00
38939;BME280;24211;49.980;19.776;2023-05-29T05:18:45;99477.94;;;13.86;100.00
38939;BME280;24211;49.980;19.776;2023-05-29T05:21:13;99477.97;;;14.02;100.00
38939;BME280;24211;49.980;19.776;2023-05-29T05:23:40;99471.53;;;14.20;100.00
38939;BME280;24211;49.980;19.776;2023-05-29T05:26:23;99468.31;;;14.34;100.00
38939;BME280;24211;49.980;19.776;2023-05-29T05:28:51;99474.97;;;14.49;100.00
38939;BME280;24211;49.980;19.776;2023-05-29T05:31:18;99473.34;;;14.64;100.00
38939;BME280;24211;49.980;19.776;2023-05-29T05:33:46;99468.75;;;14.81;100.00
38939;BME280;24211;49.980;19.776;2023-05-29T05:36:14;99468.19;;;15.01;100.00
38939;BME280;24211;49.980;19.776;2023-05-29T05:38:42;99465.19;;;15.19;100.00
38939;BME280;24211;49.980;19.776;2023-05-29T05:41:09;99472.63;;;15.34;100.00
38939;BME280;24211;49.980;19.776;2023-05-29T05:43:39;99467.44;;;15.49;100.00
38939;BME280;24211;49.980;19.776;2023-05-29T05:46:11;99472.19;;;15.63;100.00
38939;BME280;24211;49.980;19.776;2023-05-29T05:48:40;99475.53;;;15.76;100.00
38939;BME280;24211;49.980;19.776;2023-05-29T05:51:08;99480.03;;;15.92;100.00
38939;BME280;24211;49.980;19.776;2023-05-29T05:53:36;99482.28;;;16.05;100.00
38939;BME280;24211;49.980;19.776;2023-05-29T05:56:04;99481.41;;;16.26;100.00
38939;BME280;24211;49.980;19.776;2023-05-29T05:58:32;99478.34;;;16.49;100.00
38939;BME280;24211;49.980;19.776;2023-05-29T06:01:00;99482.31;;;16.73;100.00
38939;BME280;24211;49.980;19.776;2023-05-29T06:03:30;99484.59;;;16.91;100.00
38939;BME280;24211;49.980;19.776;2023-05-29T06:06:04;99478.19;;;17.08;100.00
38939;BME280;24211;49.980;19.776;2023-05-29T06:08:31;99486.09;;;17.19;100.00
38939;BME280;24211;49.980;19.776;2023-05-29T06:10:59;99484.78;;;17.32;100.00
38939;BME280;24211;49.980;19.776;2023-05-29T06:13:26;99488.06;;;17.39;100.00
38939;BME280;24211;49.980;19.776;2023-05-29T06:15:58;99490.28;;;17.52;100.00
38939;BME280;24211;49.980;19.776;2023-05-29T06:18:27;99485.47;;;17.69;100.00
38939;BME280;24211;49.980;19.776;2023-05-29T06:20:54;99485.50;;;17.79;100.00
38939;BME280;24211;49.980;19.776;2023-05-29T06:23:22;99494.19;;;17.81;100.00
38939;BME280;24211;49.980;19.776;2023-05-29T06:25:49;99491.47;;;17.96;100.00
38939;BME280;24211;49.980;19.776;2023-05-29T06:28:17;99488.78;;;18.11;100.00
38939;BME280;24211;49.980;19.776;2023-05-29T06:30:45;99496.38;;;18.24;100.00
38939;BME280;24211;49.980;19.776;2023-05-29T06:33:13;99494.22;;;18.32;100.00
38939;BME280;24211;49.980;19.776;2023-05-29T06:35:41;99499.09;;;18.45;100.00
38939;BME280;24211;49.980;19.776;2023-05-29T06:38:08;99507.25;;;18.60;100.00
38939;BME280;24211;49.980;19.776;2023-05-29T06:40:36;99507.19;;;18.80;100.00
38939;BME280;24211;49.980;19.776;2023-05-29T06:43:04;99509.88;;;18.95;100.00
38939;BME280;24211;49.980;19.776;2023-05-29T06:45:38;99514.75;;;19.03;100.00
38939;BME280;24211;49.980;19.776;2023-05-29T06:48:06;99515.78;;;19.12;100.00
38939;BME280;24211;49.980;19.776;2023-05-29T06:50:33;99515.25;;;19.15;95.39
38939;BME280;24211;49.980;19.776;2023-05-29T06:53:22;99520.09;;;19.28;100.00
38939;BME280;24211;49.980;19.776;2023-05-29T06:55:50;99518.16;;;19.44;100.00
38939;BME280;24211;49.980;19.776;2023-05-29T06:58:17;99516.47;;;19.63;97.45
38939;BME280;24211;49.980;19.776;2023-05-29T07:00:44;99519.94;;;19.69;96.71
38939;BME280;24211;49.980;19.776;2023-05-29T07:03:25;99521.47;;;19.90;97.00
38939;BME280;24211;49.980;19.776;2023-05-29T07:05:54;99517.25;;;20.07;95.24
38939;BME280;24211;49.980;19.776;2023-05-29T07:08:25;99512.22;;;20.35;93.67
38939;BME280;24211;49.980;19.776;2023-05-29T07:10:52;99512.94;;;20.45;89.51
38939;BME280;24211;49.980;19.776;2023-05-29T07:13:21;99510.72;;;20.52;91.63
38939;BME280;24211;49.980;19.776;2023-05-29T07:15:48;99517.19;;;20.61;89.80
38939;BME280;24211;49.980;19.776;2023-05-29T07:18:18;99515.44;;;20.70;89.15
38939;BME280;24211;49.980;19.776;2023-05-29T07:20:45;99517.78;;;20.82;87.83
38939;BME280;24211;49.980;19.776;2023-05-29T07:23:16;99521.16;;;20.98;87.29
38939;BME280;24211;49.980;19.776;2023-05-29T07:25:43;99514.50;;;21.14;84.75
38939;BME280;24211;49.980;19.776;2023-05-29T07:28:11;99521.16;;;21.26;82.80
38939;BME280;24211;49.980;19.776;2023-05-29T07:30:49;99526.22;;;21.33;81.79
38939;BME280;24211;49.980;19.776;2023-05-29T07:33:16;99525.53;;;21.46;78.33
38939;BME280;24211;49.980;19.776;2023-05-29T07:35:44;99528.38;;;21.60;78.13
38939;BME280;24211;49.980;19.776;2023-05-29T07:38:11;99523.59;;;21.70;78.73
38939;BME280;24211;49.980;19.776;2023-05-29T07:40:40;99517.00;;;21.76;77.64
38939;BME280;24211;49.980;19.776;2023-05-29T07:43:20;99520.56;;;21.95;76.37
38939;BME280;24211;49.980;19.776;2023-05-29T07:45:53;99523.06;;;22.10;76.64
38939;BME280;24211;49.980;19.776;2023-05-29T07:48:21;99523.00;;;22.16;74.71
38939;BME280;24211;49.980;19.776;2023-05-29T07:50:50;99523.44;;;22.23;75.51
38939;BME280;24211;49.980;19.776;2023-05-29T07:53:19;99526.56;;;22.30;75.43
38939;BME280;24211;49.980;19.776;2023-05-29T07:55:47;99526.34;;;22.45;74.30
38939;BME280;24211;49.980;19.776;2023-05-29T07:58:15;99520.75;;;22.36;74.14
38939;BME280;24211;49.980;19.776;2023-05-29T08:00:44;99522.69;;;22.36;73.44
38939;BME280;24211;49.980;19.776;2023-05-29T08:03:13;99516.13;;;22.37;73.05
38939;BME280;24211;49.980;19.776;2023-05-29T08:05:49;99520.41;;;22.56;72.63
38939;BME280;24211;49.980;19.776;2023-05-29T08:08:19;99514.59;;;22.63;71.91
38939;BME280;24211;49.980;19.776;2023-05-29T08:10:46;99516.06;;;22.88;70.84
38939;BME280;24211;49.980;19.776;2023-05-29T08:13:14;99522.00;;;23.22;70.01
38939;BME280;24211;49.980;19.776;2023-05-29T08:15:43;99516.56;;;23.35;67.14
38939;BME280;24211;49.980;19.776;2023-05-29T08:18:11;99511.41;;;23.61;65.89
38939;BME280;24211;49.980;19.776;2023-05-29T08:20:38;99516.03;;;23.74;64.39
38939;BME280;24211;49.980;19.776;2023-05-29T08:23:05;99511.22;;;24.07;62.50
38939;BME280;24211;49.980;19.776;2023-05-29T08:25:32;99514.47;;;24.31;62.34
38939;BME280;24211;49.980;19.776;2023-05-29T08:28:00;99512.47;;;24.45;59.58
38939;BME280;24211;49.980;19.776;2023-05-29T08:30:27;99500.19;;;24.56;59.80
38939;BME280;24211;49.980;19.776;2023-05-29T08:32:54;99508.56;;;24.60;60.42
38939;BME280;24211;49.980;19.776;2023-05-29T08:35:22;99507.00;;;24.90;58.50
38939;BME280;24211;49.980;19.776;2023-05-29T08:37:50;99505.63;;;25.01;58.74
38939;BME280;24211;49.980;19.776;2023-05-29T08:40:17;99507.78;;;25.21;58.59
38939;BME280;24211;49.980;19.776;2023-05-29T08:42:59;99513.41;;;25.55;54.35
38939;BME280;24211;49.980;19.776;2023-05-29T08:45:32;99510.06;;;25.75;55.66
38939;BME280;24211;49.980;19.776;2023-05-29T08:48:02;99512.16;;;25.78;55.82
38939;BME280;24211;49.980;19.776;2023-05-29T08:50:30;99511.56;;;25.98;55.73
38939;BME280;24211;49.980;19.776;2023-05-29T08:52:59;99512.06;;;26.18;54.32
38939;BME280;24211;49.980;19.776;2023-05-29T08:55:28;99497.69;;;26.46;52.60
38939;BME280;24211;49.980;19.776;2023-05-29T08:57:55;99505.78;;;26.43;53.42
38939;BME280;24211;49.980;19.776;2023-05-29T09:00:49;99503.97;;;26.64;53.12
38939;BME280;24211;49.980;19.776;2023-05-29T09:03:17;99492.81;;;26.86;52.32
38939;BME280;24211;49.980;19.776;2023-05-29T09:05:49;99487.88;;;27.17;51.11
38939;BME280;24211;49.980;19.776;2023-05-29T09:08:16;99491.66;;;27.34;49.75
38939;BME280;24211;49.980;19.776;2023-05-29T09:10:44;99492.25;;;27.48;50.56
38939;BME280;24211;49.980;19.776;2023-05-29T09:13:13;99489.72;;;27.63;51.11
38939;BME280;24211;49.980;19.776;2023-05-29T09:15:41;99484.78;;;27.57;48.32
38939;BME280;24211;49.980;19.776;2023-05-29T09:18:11;99483.34;;;27.51;50.32
38939;BME280;24211;49.980;19.776;2023-05-29T09:20:38;99477.38;;;27.49;47.82
38939;BME280;24211;49.980;19.776;2023-05-29T09:23:08;99487.59;;;27.69;48.41
38939;BME280;24211;49.980;19.776;2023-05-29T09:25:41;99483.63;;;28.08;45.93
38939;BME280;24211;49.980;19.776;2023-05-29T09:28:10;99479.91;;;28.24;45.16
38939;BME280;24211;49.980;19.776;2023-05-29T09:30:46;99481.06;;;28.56;46.53
38939;BME280;24211;49.980;19.776;2023-05-29T09:33:15;99480.31;;;28.68;45.25
38939;BME280;24211;49.980;19.776;2023-05-29T09:35:46;99471.91;;;28.52;43.41
38939;BME280;24211;49.980;19.776;2023-05-29T09:38:17;99473.63;;;28.57;44.05
38939;BME280;24211;49.980;19.776;2023-05-29T09:40:47;99465.22;;;28.86;44.64
38939;BME280;24211;49.980;19.776;2023-05-29T09:43:18;99465.03;;;29.15;45.36
38939;BME280;24211;49.980;19.776;2023-05-29T09:45:50;99464.16;;;29.35;43.55
38939;BME280;24211;49.980;19.776;2023-05-29T09:48:22;99461.84;;;29.49;43.36
38939;BME280;24211;49.980;19.776;2023-05-29T09:50:50;99464.09;;;29.71;43.68
38939;BME280;24211;49.980;19.776;2023-05-29T09:53:20;99459.84;;;29.74;44.29
38939;BME280;24211;49.980;19.776;2023-05-29T09:55:49;99463.66;;;29.82;43.58
38939;BME280;24211;49.980;19.776;2023-05-29T09:58:19;99462.88;;;30.09;43.38
38939;BME280;24211;49.980;19.776;2023-05-29T10:00:47;99456.59;;;30.36;41.03
38939;BME280;24211;49.980;19.776;2023-05-29T10:08:46;99455.94;;;30.70;40.31
38939;BME280;24211;49.980;19.776;2023-05-29T10:11:21;99456.81;;;30.74;40.43
38939;BME280;24211;49.980;19.776;2023-05-29T10:13:57;99450.28;;;30.94;38.05
38939;BME280;24211;49.980;19.776;2023-05-29T10:16:25;99452.59;;;31.24;39.10
38939;BME280;24211;49.980;19.776;2023-05-29T10:18:55;99446.25;;;31.54;39.56
38939;BME280;24211;49.980;19.776;2023-05-29T10:21:27;99441.97;;;31.57;36.80
38939;BME280;24211;49.980;19.776;2023-05-29T10:23:57;99437.31;;;31.80;35.83
38939;BME280;24211;49.980;19.776;2023-05-29T10:26:26;99441.56;;;31.93;35.14
38939;BME280;24211;49.980;19.776;2023-05-29T10:32:02;99437.59;;;31.56;33.43
38939;BME280;24211;49.980;19.776;2023-05-29T10:35:10;99444.19;;;31.86;35.27
38939;BME280;24211;49.980;19.776;2023-05-29T10:37:51;99439.19;;;32.11;33.79
38939;BME280;24211;49.980;19.776;2023-05-29T10:40:26;99424.97;;;32.31;32.85
38939;BME280;24211;49.980;19.776;2023-05-29T10:50:47;99420.78;;;32.18;34.58
38939;BME280;24211;49.980;19.776;2023-05-29T10:53:17;99417.66;;;32.62;33.88
38939;BME280;24211;49.980;19.776;2023-05-29T10:55:45;99414.53;;;32.86;33.29
38939;BME280;24211;49.980;19.776;2023-05-29T10:58:24;99418.22;;;32.93;32.28
38939;BME280;24211;49.980;19.776;2023-05-29T11:00:53;99414.09;;;32.84;33.08
38939;BME280;24211;49.980;19.776;2023-05-29T11:03:25;99419.88;;;32.98;32.34
38939;BME280;24211;49.980;19.776;2023-05-29T11:08:53;99418.97;;;33.13;32.83
38939;BME280;24211;49.980;19.776;2023-05-29T11:14:48;99418.00;;;33.54;33.36
38939;BME280;24211;49.980;19.776;2023-05-29T11:17:44;99412.03;;;33.52;33.35
38939;BME280;24211;49.980;19.776;2023-05-29T11:20:36;99411.94;;;33.19;32.63
38939;BME280;24211;49.980;19.776;2023-05-29T11:23:06;99413.41;;;33.39;32.71
38939;BME280;24211;49.980;19.776;2023-05-29T11:25:36;99415.00;;;33.67;33.46
38939;BME280;24211;49.980;19.776;2023-05-29T11:28:05;99416.47;;;33.87;34.04
38939;BME280;24211;49.980;19.776;2023-05-29T11:30:46;99416.47;;;33.87;33.74
38939;BME280;24211;49.980;19.776;2023-05-29T11:33:25;99407.50;;;33.67;32.61
38939;BME280;24211;49.980;19.776;2023-05-29T11:36:00;99405.47;;;33.38;32.23
38939;BME280;24211;49.980;19.776;2023-05-29T11:38:29;99407.44;;;33.37;32.78
38939;BME280;24211;49.980;19.776;2023-05-29T11:40:56;99407.88;;;33.39;32.76
38939;BME280;24211;49.980;19.776;2023-05-29T11:43:25;99408.66;;;33.40;32.79
38939;BME280;24211;49.980;19.776;2023-05-29T11:45:53;99407.41;;;33.60;33.38
38939;BME280;24211;49.980;19.776;2023-05-29T11:48:21;99404.63;;;33.90;33.17
38939;BME280;24211;49.980;19.776;2023-05-29T11:50:50;99393.81;;;34.11;32.85
38939;BME280;24211;49.980;19.776;2023-05-29T11:53:17;99398.75;;;34.28;32.46
38939;BME280;24211;49.980;19.776;2023-05-29T11:55:45;99402.81;;;34.38;32.56
38939;BME280;24211;49.980;19.776;2023-05-29T11:58:12;99398.81;;;34.35;32.42
38939;BME280;24211;49.980;19.776;2023-05-29T12:00:39;99399.25;;;34.04;32.21
38939;BME280;24211;49.980;19.776;2023-05-29T12:03:07;99394.28;;;33.87;32.05
38939;BME280;24211;49.980;19.776;2023-05-29T12:05:46;99392.00;;;33.92;32.47
38939;BME280;24211;49.980;19.776;2023-05-29T12:08:16;99388.41;;;33.92;32.90
38939;BME280;24211;49.980;19.776;2023-05-29T12:10:51;99385.47;;;33.78;32.35
38939;BME280;24211;49.980;19.776;2023-05-29T12:13:21;99388.66;;;33.80;32.46
38939;BME280;24211;49.980;19.776;2023-05-29T12:15:52;99377.06;;;34.04;31.39
38939;BME280;24211;49.980;19.776;2023-05-29T12:18:22;99380.94;;;34.29;31.02
38939;BME280;24211;49.980;19.776;2023-05-29T12:20:50;99363.31;;;34.51;30.26
38939;BME280;24211;49.980;19.776;2023-05-29T12:23:19;99375.38;;;34.66;30.10
38939;BME280;24211;49.980;19.776;2023-05-29T12:25:51;99369.38;;;34.60;30.03
38939;BME280;24211;49.980;19.776;2023-05-29T12:28:21;99367.34;;;34.54;30.42
38939;BME280;24211;49.980;19.776;2023-05-29T12:30:49;99368.81;;;34.44;31.13
38939;BME280;24211;49.980;19.776;2023-05-29T12:33:29;99367.94;;;34.40;31.65
38939;BME280;24211;49.980;19.776;2023-05-29T12:36:08;99361.09;;;34.64;31.07
38939;BME280;24211;49.980;19.776;2023-05-29T12:38:49;99367.34;;;34.57;31.12
38939;BME280;24211;49.980;19.776;2023-05-29T12:41:29;99361.81;;;34.57;31.78
38939;BME280;24211;49.980;19.776;2023-05-29T12:44:04;99362.28;;;34.26;31.30
38939;BME280;24211;49.980;19.776;2023-05-29T12:46:43;99363.03;;;34.23;32.31
38939;BME280;24211;49.980;19.776;2023-05-29T12:49:16;99362.69;;;33.95;31.61
38939;BME280;24211;49.980;19.776;2023-05-29T12:51:45;99369.44;;;33.64;32.12
38939;BME280;24211;49.980;19.776;2023-05-29T12:54:15;99365.75;;;33.86;32.09
38939;BME280;24211;49.980;19.776;2023-05-29T12:56:43;99356.59;;;34.12;31.16
38939;BME280;24211;49.980;19.776;2023-05-29T12:59:13;99353.59;;;34.28;31.50
38939;BME280;24211;49.980;19.776;2023-05-29T13:01:40;99355.16;;;34.25;31.72
38939;BME280;24211;49.980;19.776;2023-05-29T13:04:11;99351.97;;;34.27;31.80
38939;BME280;24211;49.980;19.776;2023-05-29T13:06:39;99357.38;;;34.12;31.57
38939;BME280;24211;49.980;19.776;2023-05-29T13:09:07;99362.00;;;33.72;31.13
38939;BME280;24211;49.980;19.776;2023-05-29T13:11:35;99349.91;;;33.53;30.69
38939;BME280;24211;49.980;19.776;2023-05-29T13:14:04;99348.19;;;33.45;31.08
38939;BME280;24211;49.980;19.776;2023-05-29T13:16:32;99348.63;;;33.47;31.32
38939;BME280;24211;49.980;19.776;2023-05-29T13:18:59;99347.88;;;33.50;31.88
38939;BME280;24211;49.980;19.776;2023-05-29T13:21:26;99340.84;;;33.90;30.83
38939;BME280;24211;49.980;19.776;2023-05-29T13:23:54;99342.66;;;34.08;31.02
38939;BME280;24211;49.980;19.776;2023-05-29T13:26:21;99332.28;;;34.39;29.87
38939;BME280;24211;49.980;19.776;2023-05-29T13:28:50;99333.47;;;34.41;30.24
38939;BME280;24211;49.980;19.776;2023-05-29T13:31:17;99341.81;;;34.41;30.35